createdAt,value
2017-11-18T00:00:35.594Z,0
2017-11-18T00:01:16.110Z,0
2017-11-18T00:01:56.629Z,0
2017-11-18T00:02:37.144Z,0
2017-11-18T00:03:17.677Z,0
2017-11-18T00:03:58.203Z,0
2017-11-18T00:04:38.701Z,0
2017-11-18T00:05:19.228Z,0
2017-11-18T00:05:59.746Z,0
2017-11-18T00:06:40.262Z,0
2017-11-18T00:07:20.784Z,0
2017-11-18T00:08:01.312Z,0
2017-11-18T00:08:41.831Z,0
2017-11-18T00:09:22.337Z,0
2017-11-18T00:10:02.867Z,0
2017-11-18T00:10:43.385Z,0
2017-11-18T00:11:23.912Z,0
2017-11-18T00:12:04.436Z,0
2017-11-18T00:12:44.948Z,0
2017-11-18T00:13:25.443Z,0
2017-11-18T00:14:05.946Z,0
2017-11-18T00:14:46.503Z,0
2017-11-18T00:15:26.977Z,0
2017-11-18T00:16:07.510Z,0
2017-11-18T00:16:48.026Z,0
2017-11-18T00:17:28.526Z,0
2017-11-18T00:18:09.050Z,0
2017-11-18T00:18:49.562Z,0
2017-11-18T00:19:30.087Z,0
2017-11-18T00:20:10.602Z,0
2017-11-18T00:20:51.125Z,0
2017-11-18T00:21:31.621Z,0
2017-11-18T00:22:12.140Z,0
2017-11-18T00:22:52.644Z,0
2017-11-18T00:23:33.171Z,0
2017-11-18T00:24:13.687Z,0
2017-11-18T00:24:54.210Z,0
2017-11-18T00:25:34.728Z,0
2017-11-18T00:26:15.267Z,0
2017-11-18T00:26:55.774Z,0
2017-11-18T00:27:36.288Z,0
2017-11-18T00:28:16.826Z,0
2017-11-18T00:28:57.370Z,0
2017-11-18T00:29:37.893Z,0
2017-11-18T00:30:18.418Z,0
2017-11-18T00:30:58.925Z,0
2017-11-18T00:31:39.450Z,0
2017-11-18T00:32:19.945Z,0
2017-11-18T00:33:00.483Z,0
2017-11-18T00:33:41.010Z,0
2017-11-18T00:34:21.551Z,0
2017-11-18T00:35:02.058Z,0
2017-11-18T00:35:42.584Z,0
2017-11-18T00:36:23.084Z,0
2017-11-18T00:37:03.614Z,0
2017-11-18T00:37:44.127Z,0
2017-11-18T00:38:24.654Z,0
2017-11-18T00:39:05.178Z,0
2017-11-18T00:39:45.693Z,0
2017-11-18T00:40:26.237Z,0
2017-11-18T00:41:06.762Z,0
2017-11-18T00:41:47.287Z,0
2017-11-18T00:42:27.796Z,0
2017-11-18T00:43:08.318Z,0
2017-11-18T00:43:48.831Z,0
2017-11-18T00:44:29.350Z,0
2017-11-18T00:45:09.872Z,0
2017-11-18T00:45:50.382Z,0
2017-11-18T00:46:30.902Z,0
2017-11-18T00:47:11.407Z,0
2017-11-18T00:47:51.918Z,0
2017-11-18T00:48:32.415Z,0
2017-11-18T00:49:12.996Z,0
2017-11-18T00:49:53.492Z,0
2017-11-18T00:50:34.004Z,0
2017-11-18T00:51:14.517Z,0
2017-11-18T00:51:55.040Z,0
2017-11-18T00:52:35.553Z,0
2017-11-18T00:53:16.086Z,0
2017-11-18T00:53:56.603Z,0
2017-11-18T00:54:37.136Z,0
2017-11-18T00:55:17.646Z,0
2017-11-18T00:55:58.157Z,0
2017-11-18T00:56:38.684Z,0
2017-11-18T00:57:19.198Z,0
2017-11-18T00:57:59.739Z,0
2017-11-18T00:58:40.271Z,0
2017-11-18T00:59:20.791Z,0
2017-11-18T01:00:01.334Z,0
2017-11-18T01:00:41.844Z,0
2017-11-18T01:01:22.348Z,0
2017-11-18T01:02:02.869Z,0
2017-11-18T01:02:43.393Z,0
2017-11-18T01:03:23.920Z,0
2017-11-18T01:04:04.451Z,0
2017-11-18T01:04:44.982Z,0
2017-11-18T01:05:25.497Z,0
2017-11-18T01:06:06.019Z,0
2017-11-18T01:06:46.543Z,0
2017-11-18T01:07:27.068Z,0
2017-11-18T01:08:07.584Z,0
2017-11-18T01:08:48.097Z,0
2017-11-18T01:09:28.595Z,0
2017-11-18T01:10:09.121Z,0
2017-11-18T01:10:49.618Z,0
2017-11-18T01:11:30.142Z,0
2017-11-18T01:12:10.656Z,0
2017-11-18T01:12:51.174Z,0
2017-11-18T01:13:31.690Z,0
2017-11-18T01:14:12.226Z,0
2017-11-18T01:14:52.736Z,0
2017-11-18T01:15:33.249Z,0
2017-11-18T01:16:13.759Z,0
2017-11-18T01:16:54.279Z,0
2017-11-18T01:17:34.786Z,0
2017-11-18T01:18:15.297Z,0
2017-11-18T01:18:55.798Z,0
2017-11-18T01:19:36.328Z,0
2017-11-18T01:20:16.851Z,0
2017-11-18T01:20:57.377Z,0
2017-11-18T01:21:37.904Z,0
2017-11-18T01:22:18.423Z,0
2017-11-18T01:22:58.937Z,0
2017-11-18T01:23:39.455Z,0
2017-11-18T01:24:19.988Z,0
2017-11-18T01:25:00.491Z,0
2017-11-18T01:25:40.999Z,0
2017-11-18T01:26:21.515Z,0
2017-11-18T01:27:02.028Z,0
2017-11-18T01:27:42.581Z,0
2017-11-18T01:28:23.045Z,0
2017-11-18T01:29:03.563Z,0
2017-11-18T01:29:44.101Z,0
2017-11-18T01:30:24.599Z,0
2017-11-18T01:31:05.108Z,0
2017-11-18T01:31:45.613Z,0
2017-11-18T01:32:26.127Z,0
2017-11-18T01:33:06.681Z,0
2017-11-18T01:33:47.194Z,0
2017-11-18T01:34:27.714Z,0
2017-11-18T01:35:08.223Z,0
2017-11-18T01:35:48.747Z,0
2017-11-18T01:36:29.265Z,0
2017-11-18T01:37:09.775Z,0
2017-11-18T01:37:50.298Z,0
2017-11-18T01:38:30.825Z,0
2017-11-18T01:39:11.330Z,0
2017-11-18T01:39:51.860Z,0
2017-11-18T01:40:32.390Z,0
2017-11-18T01:41:12.913Z,0
2017-11-18T01:41:53.418Z,0
2017-11-18T01:42:33.939Z,0
2017-11-18T01:43:14.461Z,0
2017-11-18T01:43:54.971Z,0
2017-11-18T01:44:35.482Z,0
2017-11-18T01:45:16.008Z,0
2017-11-18T01:45:56.502Z,0
2017-11-18T01:46:37.014Z,0
2017-11-18T01:47:17.533Z,0
2017-11-18T01:47:58.042Z,0
2017-11-18T01:48:38.567Z,0
2017-11-18T01:49:19.094Z,0
2017-11-18T01:49:59.599Z,0
2017-11-18T01:50:40.119Z,0
2017-11-18T01:51:20.646Z,0
2017-11-18T01:52:01.171Z,0
2017-11-18T01:52:41.700Z,0
2017-11-18T01:53:22.224Z,0
2017-11-18T01:54:02.746Z,0
2017-11-18T01:54:43.261Z,0
2017-11-18T01:55:23.793Z,0
2017-11-18T01:56:04.300Z,0
2017-11-18T01:56:44.822Z,0
2017-11-18T01:57:25.345Z,0
2017-11-18T01:58:05.866Z,0
2017-11-18T01:58:46.367Z,0
2017-11-18T01:59:26.878Z,0
2017-11-18T02:00:07.405Z,0
2017-11-18T02:00:47.977Z,0
2017-11-18T02:01:28.507Z,0
2017-11-18T02:02:09.014Z,0
2017-11-18T02:02:49.527Z,0
2017-11-18T02:03:30.047Z,0
2017-11-18T02:04:10.552Z,0
2017-11-18T02:04:51.071Z,0
2017-11-18T02:05:31.591Z,0
2017-11-18T02:06:12.112Z,0
2017-11-18T02:06:52.640Z,0
2017-11-18T02:07:33.165Z,0
2017-11-18T02:08:13.635Z,0
2017-11-18T02:08:54.149Z,0
2017-11-18T02:09:34.662Z,0
2017-11-18T02:10:15.175Z,0
2017-11-18T02:10:55.700Z,0
2017-11-18T02:11:36.212Z,0
2017-11-18T02:12:16.740Z,0
2017-11-18T02:12:57.269Z,0
2017-11-18T02:13:37.797Z,0
2017-11-18T02:14:18.312Z,0
2017-11-18T02:14:58.812Z,0
2017-11-18T02:15:39.306Z,0
2017-11-18T02:16:19.832Z,0
2017-11-18T02:17:00.350Z,0
2017-11-18T02:17:40.858Z,0
2017-11-18T02:18:21.371Z,0
2017-11-18T02:19:01.893Z,0
2017-11-18T02:19:42.423Z,0
2017-11-18T02:20:22.922Z,0
2017-11-18T02:21:03.418Z,0
2017-11-18T02:21:43.926Z,0
2017-11-18T02:22:24.433Z,0
2017-11-18T02:23:04.955Z,0
2017-11-18T02:23:45.488Z,0
2017-11-18T02:24:26.005Z,0
2017-11-18T02:25:06.532Z,0
2017-11-18T02:25:47.058Z,0
2017-11-18T02:26:27.571Z,0
2017-11-18T02:27:08.086Z,0
2017-11-18T02:27:48.605Z,0
2017-11-18T02:28:29.117Z,0
2017-11-18T02:29:09.702Z,0
2017-11-18T02:29:50.223Z,0
2017-11-18T02:30:30.743Z,0
2017-11-18T02:31:11.271Z,0
2017-11-18T02:31:51.778Z,0
2017-11-18T02:32:32.303Z,0
2017-11-18T02:33:12.824Z,0
2017-11-18T02:33:53.338Z,0
2017-11-18T02:34:33.868Z,0
2017-11-18T02:35:14.385Z,0
2017-11-18T02:35:54.908Z,0
2017-11-18T02:36:35.420Z,0
2017-11-18T02:37:15.943Z,0
2017-11-18T02:37:56.453Z,0
2017-11-18T02:38:36.969Z,0
2017-11-18T02:39:17.478Z,0
2017-11-18T02:39:58.004Z,0
2017-11-18T02:40:38.529Z,0
2017-11-18T02:41:19.068Z,0
2017-11-18T02:41:59.591Z,0
2017-11-18T02:42:40.183Z,0
2017-11-18T02:43:20.700Z,0
2017-11-18T02:44:01.204Z,0
2017-11-18T02:44:41.730Z,0
2017-11-18T02:45:22.240Z,0
2017-11-18T02:46:02.772Z,0
2017-11-18T02:46:43.288Z,0
2017-11-18T02:47:23.831Z,0
2017-11-18T02:48:04.337Z,0
2017-11-18T02:48:44.864Z,0
2017-11-18T02:49:25.402Z,0
2017-11-18T02:50:05.934Z,0
2017-11-18T02:50:46.428Z,0
2017-11-18T02:51:26.949Z,0
2017-11-18T02:52:07.463Z,0
2017-11-18T02:52:47.981Z,0
2017-11-18T02:53:28.506Z,0
2017-11-18T02:54:09.028Z,0
2017-11-18T02:54:49.523Z,0
2017-11-18T02:55:30.049Z,0
2017-11-18T02:56:10.564Z,0
2017-11-18T02:56:51.079Z,0
2017-11-18T02:57:31.603Z,0
2017-11-18T02:58:12.116Z,0
2017-11-18T02:58:52.637Z,0
2017-11-18T02:59:33.167Z,0
2017-11-18T03:00:13.689Z,0
2017-11-18T03:00:54.184Z,0
2017-11-18T03:01:34.711Z,0
2017-11-18T03:02:15.235Z,0
2017-11-18T03:02:55.753Z,0
2017-11-18T03:03:36.260Z,0
2017-11-18T03:04:16.786Z,0
2017-11-18T03:04:57.296Z,0
2017-11-18T03:05:37.811Z,0
2017-11-18T03:06:18.323Z,0
2017-11-18T03:06:58.823Z,0
2017-11-18T03:07:39.339Z,0
2017-11-18T03:08:19.908Z,0
2017-11-18T03:09:00.392Z,0
2017-11-18T03:09:40.910Z,0
2017-11-18T03:10:21.434Z,0
2017-11-18T03:11:01.927Z,0
2017-11-18T03:11:42.467Z,0
2017-11-18T03:12:22.977Z,0
2017-11-18T03:13:03.505Z,0
2017-11-18T03:13:44.022Z,0
2017-11-18T03:14:24.527Z,0
2017-11-18T03:15:05.034Z,0
2017-11-18T03:15:45.560Z,0
2017-11-18T03:16:26.083Z,0
2017-11-18T03:17:06.589Z,0
2017-11-18T03:17:47.124Z,0
2017-11-18T03:18:27.636Z,0
2017-11-18T03:19:08.163Z,0
2017-11-18T03:19:48.674Z,0
2017-11-18T03:20:29.186Z,0
2017-11-18T03:21:09.715Z,0
2017-11-18T03:21:50.209Z,0
2017-11-18T03:22:30.737Z,0
2017-11-18T03:23:11.246Z,0
2017-11-18T03:23:51.762Z,0
2017-11-18T03:24:32.295Z,0
2017-11-18T03:25:12.806Z,0
2017-11-18T03:25:53.319Z,0
2017-11-18T03:26:33.841Z,0
2017-11-18T03:27:14.351Z,0
2017-11-18T03:27:54.880Z,0
2017-11-18T03:28:35.395Z,0
2017-11-18T03:29:15.917Z,0
2017-11-18T03:29:56.427Z,0
2017-11-18T03:30:36.937Z,0
2017-11-18T03:31:17.459Z,0
2017-11-18T03:31:57.988Z,0
2017-11-18T03:32:38.502Z,0
2017-11-18T03:33:19.030Z,0
2017-11-18T03:33:59.554Z,0
2017-11-18T03:34:40.076Z,0
2017-11-18T03:35:20.594Z,0
2017-11-18T03:36:01.143Z,0
2017-11-18T03:36:41.669Z,0
2017-11-18T03:37:22.200Z,0
2017-11-18T03:38:02.723Z,0
2017-11-18T03:38:43.231Z,0
2017-11-18T03:39:23.747Z,0
2017-11-18T03:40:04.270Z,0
2017-11-18T03:40:44.808Z,0
2017-11-18T03:41:25.330Z,0
2017-11-18T03:42:05.829Z,0
2017-11-18T03:42:46.360Z,0
2017-11-18T03:43:26.872Z,0
2017-11-18T03:44:07.406Z,0
2017-11-18T03:44:47.920Z,0
2017-11-18T03:45:28.456Z,0
2017-11-18T03:46:08.970Z,0
2017-11-18T03:46:49.476Z,0
2017-11-18T03:47:30.008Z,0
2017-11-18T03:48:10.535Z,0
2017-11-18T03:48:51.026Z,0
2017-11-18T03:49:31.551Z,0
2017-11-18T03:50:12.043Z,0
2017-11-18T03:50:52.556Z,0
2017-11-18T03:51:33.088Z,0
2017-11-18T03:52:13.600Z,0
2017-11-18T03:52:54.125Z,0
2017-11-18T03:53:34.658Z,0
2017-11-18T03:54:15.157Z,0
2017-11-18T03:54:55.668Z,0
2017-11-18T03:55:36.175Z,0
2017-11-18T03:56:16.688Z,0
2017-11-18T03:56:57.213Z,0
2017-11-18T03:57:37.735Z,0
2017-11-18T03:58:18.250Z,0
2017-11-18T03:58:58.788Z,0
2017-11-18T03:59:39.301Z,0
2017-11-18T04:00:19.792Z,0
2017-11-18T04:01:00.312Z,0
2017-11-18T04:01:40.832Z,0
2017-11-18T04:02:21.332Z,0
2017-11-18T04:03:01.849Z,0
2017-11-18T04:03:42.361Z,0
2017-11-18T04:04:22.876Z,0
2017-11-18T04:05:03.398Z,0
2017-11-18T04:05:43.936Z,0
2017-11-18T04:06:24.460Z,0
2017-11-18T04:07:04.971Z,0
2017-11-18T04:07:45.481Z,0
2017-11-18T04:08:26.002Z,0
2017-11-18T04:09:06.553Z,0
2017-11-18T04:09:47.031Z,0
2017-11-18T04:10:27.535Z,0
2017-11-18T04:11:08.069Z,0
2017-11-18T04:11:48.581Z,0
2017-11-18T04:12:29.094Z,0
2017-11-18T04:13:09.624Z,0
2017-11-18T04:13:50.145Z,0
2017-11-18T04:14:30.642Z,0
2017-11-18T04:15:11.173Z,0
2017-11-18T04:15:51.701Z,0
2017-11-18T04:16:32.205Z,0
2017-11-18T04:17:12.701Z,0
2017-11-18T04:17:53.226Z,0
2017-11-18T04:18:33.740Z,0
2017-11-18T04:19:14.237Z,0
2017-11-18T04:19:54.743Z,0
2017-11-18T04:20:35.261Z,0
2017-11-18T04:21:15.764Z,0
2017-11-18T04:21:56.294Z,0
2017-11-18T04:22:36.799Z,0
2017-11-18T04:23:17.364Z,0
2017-11-18T04:23:57.867Z,0
2017-11-18T04:24:38.395Z,0
2017-11-18T04:25:18.958Z,0
2017-11-18T04:25:59.477Z,0
2017-11-18T04:26:39.979Z,0
2017-11-18T04:27:20.477Z,0
2017-11-18T04:28:01.028Z,0
2017-11-18T04:28:41.506Z,0
2017-11-18T04:29:22.005Z,0
2017-11-18T04:30:02.525Z,0
2017-11-18T04:30:43.046Z,0
2017-11-18T04:31:23.573Z,0
2017-11-18T04:32:04.097Z,0
2017-11-18T04:32:44.608Z,0
2017-11-18T04:33:25.137Z,0
2017-11-18T04:34:05.650Z,0
2017-11-18T04:34:46.154Z,0
2017-11-18T04:35:26.682Z,0
2017-11-18T04:36:07.197Z,0
2017-11-18T04:36:47.693Z,0
2017-11-18T04:37:28.207Z,0
2017-11-18T04:38:08.733Z,0
2017-11-18T04:38:49.254Z,0
2017-11-18T04:39:29.784Z,0
2017-11-18T04:40:10.322Z,0
2017-11-18T04:40:50.838Z,0
2017-11-18T04:41:31.353Z,0
2017-11-18T04:42:11.886Z,0
2017-11-18T04:42:52.424Z,0
2017-11-18T04:43:32.949Z,0
2017-11-18T04:44:13.469Z,0
2017-11-18T04:44:53.992Z,0
2017-11-18T04:45:34.510Z,0
2017-11-18T04:46:15.034Z,0
2017-11-18T04:46:55.544Z,0
2017-11-18T04:47:36.123Z,0
2017-11-18T04:48:16.628Z,0
2017-11-18T04:48:57.160Z,0
2017-11-18T04:49:37.689Z,0
2017-11-18T04:50:18.189Z,0
2017-11-18T04:50:58.729Z,0
2017-11-18T04:51:39.259Z,0
2017-11-18T04:52:19.790Z,0
2017-11-18T04:53:00.296Z,0
2017-11-18T04:53:40.847Z,0
2017-11-18T04:54:21.432Z,0
2017-11-18T04:55:01.939Z,0
2017-11-18T04:55:42.457Z,0
2017-11-18T04:56:22.935Z,0
2017-11-18T04:57:03.451Z,0
2017-11-18T04:57:43.965Z,0
2017-11-18T04:58:24.491Z,0
2017-11-18T04:59:05.013Z,0
2017-11-18T04:59:45.526Z,0
2017-11-18T05:00:26.045Z,0
2017-11-18T05:01:06.555Z,0
2017-11-18T05:01:47.093Z,0
2017-11-18T05:02:27.603Z,0
2017-11-18T05:03:08.122Z,0
2017-11-18T05:03:48.649Z,0
2017-11-18T05:04:29.156Z,0
2017-11-18T05:05:09.681Z,0
2017-11-18T05:05:50.210Z,0
2017-11-18T05:06:30.708Z,0
2017-11-18T05:07:11.246Z,0
2017-11-18T05:07:51.766Z,0
2017-11-18T05:08:32.288Z,0
2017-11-18T05:09:12.789Z,0
2017-11-18T05:09:53.289Z,0
2017-11-18T05:10:33.798Z,0
2017-11-18T05:11:14.310Z,0
2017-11-18T05:11:54.891Z,0
2017-11-18T05:12:35.407Z,0
2017-11-18T05:13:15.907Z,0
2017-11-18T05:13:56.423Z,0
2017-11-18T05:14:36.939Z,0
2017-11-18T05:15:17.457Z,0
2017-11-18T05:15:57.981Z,0
2017-11-18T05:16:38.494Z,0
2017-11-18T05:17:18.996Z,0
2017-11-18T05:17:59.527Z,0
2017-11-18T05:18:40.052Z,0
2017-11-18T05:19:20.548Z,0
2017-11-18T05:20:01.081Z,0
2017-11-18T05:20:41.660Z,0
2017-11-18T05:21:22.114Z,0
2017-11-18T05:22:02.648Z,0
2017-11-18T05:22:43.168Z,0
2017-11-18T05:23:23.660Z,0
2017-11-18T05:24:04.212Z,0
2017-11-18T05:24:44.730Z,0
2017-11-18T05:25:25.251Z,0
2017-11-18T05:26:05.745Z,0
2017-11-18T05:26:46.257Z,0
2017-11-18T05:27:26.799Z,0
2017-11-18T05:28:07.367Z,0
2017-11-18T05:28:47.876Z,0
2017-11-18T05:29:28.408Z,0
2017-11-18T05:30:08.934Z,0
2017-11-18T05:30:49.446Z,0
2017-11-18T05:31:29.964Z,0
2017-11-18T05:32:10.502Z,0
2017-11-18T05:32:51.029Z,0
2017-11-18T05:33:31.558Z,0
2017-11-18T05:34:12.085Z,0
2017-11-18T05:34:52.595Z,0
2017-11-18T05:35:33.127Z,0
2017-11-18T05:36:13.608Z,0
2017-11-18T05:36:54.140Z,0
2017-11-18T05:37:34.652Z,0
2017-11-18T05:38:15.206Z,0
2017-11-18T05:38:55.791Z,0
2017-11-18T05:39:36.417Z,0
2017-11-18T05:40:16.980Z,0
2017-11-18T05:40:57.469Z,0
2017-11-18T05:41:37.995Z,0
2017-11-18T05:42:18.518Z,0
2017-11-18T05:42:59.017Z,0
2017-11-18T05:43:39.529Z,0
2017-11-18T05:44:20.059Z,0
2017-11-18T05:45:00.569Z,0
2017-11-18T05:45:41.097Z,0
2017-11-18T05:46:21.607Z,0
2017-11-18T05:47:02.114Z,0
2017-11-18T05:47:42.632Z,0
2017-11-18T05:48:23.153Z,0
2017-11-18T05:49:03.670Z,0
2017-11-18T05:49:44.191Z,0
2017-11-18T05:50:24.711Z,0
2017-11-18T05:51:05.216Z,0
2017-11-18T05:51:45.733Z,0
2017-11-18T05:52:26.242Z,0
2017-11-18T05:53:06.758Z,0
2017-11-18T05:53:47.273Z,0
2017-11-18T05:54:27.788Z,0
2017-11-18T05:55:08.312Z,0
2017-11-18T05:55:48.856Z,0
2017-11-18T05:56:29.357Z,0
2017-11-18T05:57:09.875Z,0
2017-11-18T05:57:50.401Z,0
2017-11-18T05:58:30.935Z,0
2017-11-18T05:59:11.450Z,0
2017-11-18T05:59:51.990Z,0
2017-11-18T06:00:32.516Z,0
2017-11-18T06:01:13.094Z,0
2017-11-18T06:01:53.635Z,0
2017-11-18T06:02:34.166Z,0
2017-11-18T06:03:14.686Z,0
2017-11-18T06:03:55.209Z,0
2017-11-18T06:04:35.712Z,0
2017-11-18T06:05:16.238Z,0
2017-11-18T06:05:56.773Z,0
2017-11-18T06:06:37.286Z,0
2017-11-18T06:07:17.863Z,0
2017-11-18T06:07:58.336Z,0
2017-11-18T06:08:38.868Z,0
2017-11-18T06:09:19.380Z,0
2017-11-18T06:09:59.914Z,0
2017-11-18T06:10:40.447Z,0
2017-11-18T06:11:21.022Z,0
2017-11-18T06:12:01.536Z,0
2017-11-18T06:12:42.054Z,0
2017-11-18T06:13:22.571Z,0
2017-11-18T06:14:03.117Z,0
2017-11-18T06:14:43.656Z,0
2017-11-18T06:15:24.178Z,0
2017-11-18T06:16:04.710Z,0
2017-11-18T06:16:45.228Z,0
2017-11-18T06:17:25.742Z,0
2017-11-18T06:18:06.257Z,0
2017-11-18T06:18:46.775Z,0
2017-11-18T06:19:27.294Z,0
2017-11-18T06:20:07.800Z,4
2017-11-18T06:20:48.323Z,4
2017-11-18T06:21:28.808Z,0
2017-11-18T06:22:09.322Z,0
2017-11-18T06:22:49.847Z,4
2017-11-18T06:23:30.424Z,0
2017-11-18T06:24:10.886Z,4
2017-11-18T06:24:51.383Z,4
2017-11-18T06:25:31.889Z,4
2017-11-18T06:26:12.415Z,8
2017-11-18T06:26:52.921Z,4
2017-11-18T06:27:33.440Z,8
2017-11-18T06:28:13.944Z,8
2017-11-18T06:28:54.483Z,8
2017-11-18T06:29:35.006Z,12
2017-11-18T06:30:15.483Z,12
2017-11-18T06:30:56.018Z,12
2017-11-18T06:31:36.519Z,8
2017-11-18T06:32:17.024Z,12
2017-11-18T06:32:57.545Z,12
2017-11-18T06:33:38.049Z,12
2017-11-18T06:34:18.566Z,16
2017-11-18T06:34:59.100Z,20
2017-11-18T06:35:39.617Z,20
2017-11-18T06:36:20.161Z,24
2017-11-18T06:37:00.659Z,28
2017-11-18T06:37:41.169Z,28
2017-11-18T06:38:21.682Z,28
2017-11-18T06:39:02.180Z,36
2017-11-18T06:39:42.691Z,36
2017-11-18T06:40:23.241Z,40
2017-11-18T06:41:03.728Z,44
2017-11-18T06:41:44.271Z,44
2017-11-18T06:42:24.753Z,48
2017-11-18T06:43:05.252Z,52
2017-11-18T06:43:45.777Z,56
2017-11-18T06:44:26.282Z,64
2017-11-18T06:45:06.801Z,60
2017-11-18T06:45:47.299Z,64
2017-11-18T06:46:27.794Z,68
2017-11-18T06:47:08.316Z,76
2017-11-18T06:47:48.826Z,80
2017-11-18T06:48:29.330Z,84
2017-11-18T06:49:09.843Z,88
2017-11-18T06:49:50.364Z,92
2017-11-18T06:50:30.927Z,100
2017-11-18T06:51:11.428Z,108
2017-11-18T06:51:51.910Z,112
2017-11-18T06:52:32.423Z,124
2017-11-18T06:53:12.913Z,124
2017-11-18T06:53:53.419Z,128
2017-11-18T06:54:33.932Z,140
2017-11-18T06:55:14.450Z,144
2017-11-18T06:55:54.982Z,156
2017-11-18T06:56:35.486Z,168
2017-11-18T06:57:16.653Z,180
2017-11-18T06:57:57.184Z,184
2017-11-18T06:58:37.701Z,192
2017-11-18T06:59:18.209Z,196
2017-11-18T06:59:58.736Z,204
2017-11-18T07:00:39.240Z,228
2017-11-18T07:01:19.749Z,240
2017-11-18T07:02:00.276Z,244
2017-11-18T07:02:40.811Z,248
2017-11-18T07:03:21.303Z,256
2017-11-18T07:04:01.803Z,272
2017-11-18T07:04:42.293Z,288
2017-11-18T07:05:22.814Z,304
2017-11-18T07:06:03.332Z,336
2017-11-18T07:06:43.823Z,360
2017-11-18T07:07:24.343Z,372
2017-11-18T07:08:04.848Z,372
2017-11-18T07:08:45.355Z,372
2017-11-18T07:09:25.862Z,384
2017-11-18T07:10:06.399Z,384
2017-11-18T07:10:46.925Z,404
2017-11-18T07:11:27.447Z,448
2017-11-18T07:12:08.041Z,456
2017-11-18T07:12:48.534Z,504
2017-11-18T07:13:29.037Z,528
2017-11-18T07:14:09.543Z,544
2017-11-18T07:14:50.096Z,572
2017-11-18T07:15:30.659Z,576
2017-11-18T07:16:11.149Z,572
2017-11-18T07:16:51.667Z,596
2017-11-18T07:17:32.180Z,604
2017-11-18T07:18:12.966Z,600
2017-11-18T07:18:53.563Z,636
2017-11-18T07:19:34.262Z,704
2017-11-18T07:20:14.836Z,732
2017-11-18T07:20:55.358Z,744
2017-11-18T07:21:35.865Z,700
2017-11-18T07:22:16.382Z,652
2017-11-18T07:22:56.893Z,648
2017-11-18T07:23:37.387Z,708
2017-11-18T07:24:17.902Z,712
2017-11-18T07:24:58.425Z,676
2017-11-18T07:25:38.921Z,720
2017-11-18T07:26:19.428Z,720
2017-11-18T07:26:59.954Z,772
2017-11-18T07:27:40.465Z,752
2017-11-18T07:28:20.987Z,728
2017-11-18T07:29:01.476Z,700
2017-11-18T07:29:42.002Z,700
2017-11-18T07:30:22.552Z,780
2017-11-18T07:31:03.064Z,776
2017-11-18T07:31:43.596Z,788
2017-11-18T07:32:24.126Z,900
2017-11-18T07:33:04.645Z,948
2017-11-18T07:33:45.173Z,1008
2017-11-18T07:34:25.685Z,1084
2017-11-18T07:35:06.210Z,1044
2017-11-18T07:35:46.793Z,1000
2017-11-18T07:36:27.323Z,1096
2017-11-18T07:37:07.846Z,1196
2017-11-18T07:37:48.371Z,1164
2017-11-18T07:40:02.990Z,1316
2017-11-18T07:40:43.373Z,1220
2017-11-18T07:41:23.886Z,1156
2017-11-18T07:42:04.408Z,1104
2017-11-18T07:42:44.946Z,1192
2017-11-18T07:43:25.451Z,1320
2017-11-18T07:44:05.993Z,1324
2017-11-18T07:44:46.491Z,1208
2017-11-18T07:45:27.017Z,1100
2017-11-18T07:46:07.534Z,1124
2017-11-18T07:46:48.033Z,1232
2017-11-18T07:47:28.546Z,1248
2017-11-18T07:48:09.039Z,1200
2017-11-18T07:48:49.568Z,1316
2017-11-18T07:49:30.105Z,1452
2017-11-18T07:50:10.631Z,1460
2017-11-18T07:50:51.193Z,1420
2017-11-18T07:51:31.715Z,1408
2017-11-18T07:52:12.222Z,1296
2017-11-18T07:52:52.736Z,1320
2017-11-18T07:53:33.251Z,1348
2017-11-18T07:54:13.771Z,1396
2017-11-18T07:54:54.305Z,1256
2017-11-18T07:55:34.823Z,1152
2017-11-18T07:56:15.343Z,1220
2017-11-18T07:56:55.873Z,1192
2017-11-18T07:57:36.405Z,1236
2017-11-18T07:58:16.937Z,1300
2017-11-18T07:58:57.466Z,1400
2017-11-18T07:59:37.974Z,1416
2017-11-18T08:00:18.495Z,1480
2017-11-18T08:00:59.007Z,1624
2017-11-18T08:01:39.529Z,1720
2017-11-18T08:02:20.058Z,1892
2017-11-18T08:03:00.589Z,1948
2017-11-18T08:03:41.150Z,1968
2017-11-18T08:04:21.658Z,1900
2017-11-18T08:05:02.188Z,1784
2017-11-18T08:05:42.715Z,1740
2017-11-18T08:06:23.247Z,1564
2017-11-18T08:07:03.757Z,1376
2017-11-18T08:07:44.287Z,1216
2017-11-18T08:08:24.824Z,1096
2017-11-18T08:09:05.360Z,1028
2017-11-18T08:09:45.883Z,1084
2017-11-18T08:10:26.425Z,1140
2017-11-18T08:11:06.939Z,1076
2017-11-18T08:11:47.458Z,1020
2017-11-18T08:12:27.977Z,976
2017-11-18T08:13:08.483Z,976
2017-11-18T08:13:49.014Z,1016
2017-11-18T08:14:29.512Z,1020
2017-11-18T08:15:10.041Z,1032
2017-11-18T08:15:50.557Z,1112
2017-11-18T08:16:31.074Z,1120
2017-11-18T08:17:11.599Z,1080
2017-11-18T08:17:52.107Z,1008
2017-11-18T08:18:32.599Z,1128
2017-11-18T08:19:13.130Z,1008
2017-11-18T08:19:53.661Z,956
2017-11-18T08:20:34.159Z,904
2017-11-18T08:21:14.683Z,844
2017-11-18T08:21:55.187Z,796
2017-11-18T08:22:35.706Z,808
2017-11-18T08:23:16.227Z,924
2017-11-18T08:23:56.749Z,960
2017-11-18T08:24:37.273Z,968
2017-11-18T08:25:17.778Z,944
2017-11-18T08:25:58.330Z,944
2017-11-18T08:26:38.847Z,980
2017-11-18T08:27:19.360Z,948
2017-11-18T08:27:59.911Z,880
2017-11-18T08:28:40.441Z,848
2017-11-18T08:29:20.982Z,844
2017-11-18T08:30:01.507Z,916
2017-11-18T08:30:42.029Z,992
2017-11-18T08:31:22.550Z,1036
2017-11-18T08:32:03.082Z,1052
2017-11-18T08:32:43.611Z,1068
2017-11-18T08:33:24.148Z,1100
2017-11-18T08:34:04.668Z,1084
2017-11-18T08:34:45.173Z,1092
2017-11-18T08:35:25.704Z,1088
2017-11-18T08:36:06.230Z,1056
2017-11-18T08:36:46.738Z,1056
2017-11-18T08:37:27.267Z,1080
2017-11-18T08:38:07.780Z,1124
2017-11-18T08:38:48.312Z,1184
2017-11-18T08:39:28.838Z,1216
2017-11-18T08:40:09.357Z,1292
2017-11-18T08:40:49.862Z,1324
2017-11-18T08:41:30.380Z,1268
2017-11-18T08:42:10.872Z,1292
2017-11-18T08:42:51.385Z,1208
2017-11-18T08:43:31.891Z,1384
2017-11-18T08:44:12.400Z,1576
2017-11-18T08:44:52.919Z,1656
2017-11-18T08:45:33.443Z,1544
2017-11-18T08:46:13.959Z,1696
2017-11-18T08:46:54.492Z,1716
2017-11-18T08:47:35.016Z,1784
2017-11-18T08:48:15.547Z,1796
2017-11-18T08:48:56.049Z,1740
2017-11-18T08:49:36.581Z,1652
2017-11-18T08:50:17.102Z,1456
2017-11-18T08:50:57.590Z,1452
2017-11-18T08:51:38.110Z,1512
2017-11-18T08:52:18.612Z,1464
2017-11-18T08:52:59.136Z,1460
2017-11-18T08:53:39.654Z,1624
2017-11-18T08:54:20.159Z,1620
2017-11-18T08:55:00.673Z,1668
2017-11-18T08:55:41.166Z,1696
2017-11-18T08:56:21.690Z,1808
2017-11-18T08:57:02.212Z,1852
2017-11-18T08:57:42.735Z,1824
2017-11-18T08:58:23.254Z,1952
2017-11-18T08:59:03.786Z,1984
2017-11-18T08:59:44.313Z,1904
2017-11-18T09:00:24.832Z,1916
2017-11-18T09:01:05.349Z,2040
2017-11-18T09:01:45.869Z,1952
2017-11-18T09:02:26.366Z,1904
2017-11-18T09:03:06.887Z,1836
2017-11-18T09:03:47.422Z,1744
2017-11-18T09:04:27.936Z,1788
2017-11-18T09:05:08.465Z,2644
2017-11-18T09:05:48.991Z,2320
2017-11-18T09:06:29.507Z,1648
2017-11-18T09:07:10.008Z,1580
2017-11-18T09:07:50.519Z,1556
2017-11-18T09:08:31.028Z,1552
2017-11-18T09:09:11.581Z,1564
2017-11-18T09:09:52.081Z,1520
2017-11-18T09:10:32.607Z,1516
2017-11-18T09:11:13.112Z,1780
2017-11-18T09:11:53.642Z,1892
2017-11-18T09:12:34.177Z,1784
2017-11-18T09:13:14.695Z,1708
2017-11-18T09:13:55.205Z,1640
2017-11-18T09:14:35.743Z,1560
2017-11-18T09:15:16.289Z,1644
2017-11-18T09:15:56.809Z,1664
2017-11-18T09:16:37.311Z,1628
2017-11-18T09:17:17.811Z,1548
2017-11-18T09:17:58.326Z,1436
2017-11-18T09:18:38.837Z,1432
2017-11-18T09:19:19.354Z,1364
2017-11-18T09:19:59.872Z,1376
2017-11-18T09:20:40.398Z,1524
2017-11-18T09:21:20.944Z,1804
2017-11-18T09:22:01.471Z,1880
2017-11-18T09:22:42.005Z,1656
2017-11-18T09:23:22.509Z,1488
2017-11-18T09:24:03.018Z,1488
2017-11-18T09:24:43.544Z,1452
2017-11-18T09:25:24.057Z,1424
2017-11-18T09:26:04.594Z,1372
2017-11-18T09:26:45.115Z,1376
2017-11-18T09:27:25.646Z,1396
2017-11-18T09:28:06.174Z,1432
2017-11-18T09:28:46.696Z,1464
2017-11-18T09:29:27.222Z,1460
2017-11-18T09:30:07.736Z,1384
2017-11-18T09:30:48.241Z,1536
2017-11-18T09:31:28.770Z,1708
2017-11-18T09:32:09.298Z,2172
2017-11-18T09:32:49.801Z,2720
2017-11-18T09:33:30.325Z,2752
2017-11-18T09:34:10.842Z,2608
2017-11-18T09:34:51.447Z,2528
2017-11-18T09:35:31.973Z,2588
2017-11-18T09:36:12.462Z,2608
2017-11-18T09:36:52.980Z,2540
2017-11-18T09:37:33.500Z,2440
2017-11-18T09:38:14.003Z,2448
2017-11-18T09:38:54.531Z,2436
2017-11-18T09:39:35.031Z,2380
2017-11-18T09:40:15.537Z,2396
2017-11-18T09:40:56.051Z,2356
2017-11-18T09:41:36.567Z,2260
2017-11-18T09:42:17.100Z,2148
2017-11-18T09:42:57.661Z,2156